Latest Weather Observations for Stenhouse Bay

IDS60801

Issued at 7:02 am CST Sunday 26 April 2015 (issued every 30 minutes, with the page automatically refreshed every 10 minutes)

About weather observations | Map of weather stations | Latest weather observations for SA | Other Formats
Station Details ID: 022049 Name: STENHOUSE BAY Lat: -35.28 Lon: 136.94 Height: 42.0 m
Data from the previous 72 hours. | See also: Recent months at Stenhouse Bay
Date/Time
CST
Temp
°C
App
Temp
°C
Dew
Point
Rel
Hum
%
Delta-T
°C
Wind Press
QNH
hPa
Press
MSL
hPa
Rain
since 9 am
mm
Dir
 
Spd
km/h
Gust
km/h
Spd
kts
Gust
kts
26/07:00am 13.6 8.3 10.0 79 1.9 S 28 35 15 19 1024.2 1024.1 0.2
26/06:30am 13.9 9.6 9.5 75 2.2 S 22 28 12 15 1023.9 1023.8 0.2
26/06:00am 13.4 9.2 9.8 79 1.8 SSE 22 30 12 16 1023.8 1023.7 0.2
26/05:30am 13.2 9.1 10.0 81 1.6 S 22 30 12 16 1023.5 1023.4 0.2
26/05:00am 13.3 9.7 9.9 80 1.8 S 19 24 10 13 1023.3 1023.2 0.2
26/04:30am 13.4 9.7 10.0 80 1.7 S 20 28 11 15 1023.1 1023.0 0.2
26/04:00am 13.4 8.9 10.0 80 1.8 S 24 30 13 16 1022.9 1022.8 0.2
26/03:30am 13.4 9.3 10.0 80 1.7 S 22 32 12 17 1022.6 1022.5 0.2
26/03:00am 13.0 8.8 9.6 80 1.7 S 22 30 12 16 1022.5 1022.4 0.2
26/02:30am 13.1 8.9 9.7 80 1.7 S 22 28 12 15 1022.7 1022.6 0.2
26/02:00am 13.2 9.4 9.8 80 1.7 S 20 26 11 14 1022.7 1022.6 0.2
26/01:30am 13.1 9.0 10.1 82 1.5 S 22 30 12 16 1022.7 1022.6 0.2
26/01:00am 13.0 9.5 10.2 83 1.4 SSE 19 24 10 13 1022.7 1022.6 0.2
26/12:30am 13.0 8.9 10.0 82 1.5 S 22 28 12 15 1022.8 1022.7 0.2
26/12:00am 12.9 9.2 10.1 83 1.4 S 20 28 11 15 1022.7 1022.6 0.2
 
Date/Time
CST
Temp
°C
App
Temp
°C
Dew
Point
Rel
Hum
%
Delta-T
°C
Wind Press
QNH
hPa
Press
MSL
hPa
Rain
since 9 am
mm
Dir
 
Spd
km/h
Gust
km/h
Spd
kts
Gust
kts
25/11:30pm 12.9 9.4 10.1 83 1.4 S 19 24 10 13 1022.7 1022.6 0.2
25/11:00pm 13.2 9.0 9.8 80 1.7 S 22 28 12 15 1022.7 1022.6 0.2
25/10:30pm 13.3 9.1 9.9 80 1.7 S 22 30 12 16 1022.5 1022.4 0.2
25/10:00pm 13.3 8.2 9.2 76 2.1 S 26 33 14 18 1022.4 1022.3 0.2
25/09:30pm 13.2 8.4 8.7 74 2.2 S 24 28 13 15 1022.2 1022.1 0.2
25/09:00pm 13.4 8.3 7.8 69 2.8 S 24 30 13 16 1021.8 1021.7 0.2
25/08:30pm 13.8 8.0 8.0 68 2.9 S 28 35 15 19 1021.5 1021.4 0.2
25/08:00pm 13.7 7.7 7.0 64 3.3 S 28 41 15 22 1021.3 1021.2 0.2
25/07:30pm 13.8 7.2 7.6 66 3.0 S 32 39 17 21 1021.0 1020.9 0.2
25/07:00pm 13.7 7.0 7.2 65 3.2 S 32 41 17 22 1020.9 1020.8 0.2
25/06:30pm 14.0 7.0 8.6 70 2.7 S 35 43 19 23 1020.3 1020.2 0.2
25/06:00pm 14.0 8.1 9.0 72 2.5 S 30 41 16 22 1019.9 1019.8 0.2
25/05:30pm 13.9 7.8 10.3 79 1.9 S 33 41 18 22 1019.5 1019.4 0.2
25/05:00pm 13.7 8.0 11.0 84 1.4 S 32 43 17 23 1019.1 1019.0 0.2
25/04:30pm 14.5 8.6 11.1 80 1.8 S 33 43 18 23 1018.7 1018.6 0.2
25/04:19pm 14.9 9.2 11.3 79 1.9 S 32 50 17 27 1018.6 1018.5 0.2
25/04:00pm 15.0 8.9 10.4 74 2.4 S 33 43 18 23 1018.4 1018.3 0.2
25/03:30pm 14.6 9.4 11.7 83 1.6 S 30 39 16 21 1018.0 1017.9 0.2
25/03:00pm 14.8 8.8 12.1 84 1.5 S 35 44 19 24 1017.5 1017.4 0.2
25/02:30pm 16.2 10.6 11.4 73 2.6 S 32 39 17 21 1017.1 1017.0 0.0
25/02:00pm 16.5 11.3 11.6 73 2.7 S 30 46 16 25 1016.8 1016.7 0.0
25/01:30pm 16.7 11.2 12.5 76 2.3 S 33 44 18 24 1016.5 1016.4 0.0
25/01:00pm 16.9 10.8 11.8 72 2.8 S 35 43 19 23 1016.3 1016.2 0.0
25/12:30pm 16.2 13.2 12.4 78 2.1 SSW 20 39 11 21 1016.5 1016.4 0.0
25/12:00pm 15.5 11.3 12.4 82 1.7 S 26 35 14 19 1016.4 1016.3 0.0
25/11:30am 16.0 12.5 11.0 72 2.7 S 20 28 11 15 1016.3 1016.2 0.0
25/11:00am 16.3 12.8 10.8 70 2.9 S 20 26 11 14 1016.1 1016.0 0.0
25/10:30am 15.8 11.3 10.1 69 3.0 SSW 24 32 13 17 1016.0 1015.9 0.0
25/10:00am 15.5 9.7 9.6 68 3.1 S 30 37 16 20 1015.6 1015.5 0.0
25/09:30am 15.3 9.0 9.0 66 3.2 S 32 39 17 21 1015.2 1015.1 0.0
25/09:00am 14.9 8.5 9.3 69 2.9 S 33 46 18 25 1014.7 1014.6 6.4
25/08:30am 14.7 8.9 9.3 70 2.8 SSW 30 41 16 22 1014.3 1014.2 6.4
25/08:00am 14.3 8.1 9.5 73 2.5 S 32 39 17 21 1013.7 1013.6 6.4
25/07:30am 13.8 8.4 9.5 75 2.2 S 28 37 15 20 1013.1 1013.0 6.4
25/07:00am 13.6 7.8 9.3 75 2.2 S 30 35 16 19 1012.4 1012.3 6.4
25/06:30am 13.4 7.2 9.3 76 2.1 S 32 39 17 21 1011.8 1011.7 6.4
25/06:00am 13.5 7.2 9.0 74 2.3 S 32 43 17 23 1011.2 1011.1 6.4
25/05:30am 13.5 7.0 9.0 74 2.3 S 33 43 18 23 1010.7 1010.6 6.4
25/05:00am 13.1 6.7 8.4 73 2.3 S 32 43 17 23 1009.9 1009.8 6.4
25/04:30am 12.9 6.3 8.4 74 2.2 S 33 43 18 23 1009.1 1009.0 6.4
25/04:00am 12.8 4.6 8.1 73 2.3 S 41 50 22 27 1008.6 1008.5 6.4
25/03:30am 13.1 5.0 8.6 74 2.3 S 41 52 22 28 1008.0 1007.9 6.4
25/03:00am 13.0 3.9 8.5 74 2.3 S 46 57 25 31 1007.4 1007.3 6.4
25/02:30am 13.0 4.4 8.7 75 2.2 S 44 57 24 31 1007.2 1007.1 6.4
25/02:00am 12.8 4.2 8.7 76 2.1 SSW 44 56 24 30 1006.5 1006.4 6.4
25/01:30am 12.7 3.2 8.4 75 2.1 S 48 59 26 32 1005.7 1005.7 6.4
25/01:00am 12.8 3.3 8.5 75 2.1 S 48 65 26 35 1005.0 1005.0 6.4
25/12:30am 12.9 4.5 9.5 80 1.7 S 44 59 24 32 1004.4 1004.3 6.4
25/12:00am 12.8 3.4 8.9 77 2.0 SSW 48 63 26 34 1003.5 1003.4 6.4
 
Date/Time
CST
Temp
°C
App
Temp
°C
Dew
Point
Rel
Hum
%
Delta-T
°C
Wind Press
QNH
hPa
Press
MSL
hPa
Rain
since 9 am
mm
Dir
 
Spd
km/h
Gust
km/h
Spd
kts
Gust
kts
24/11:32pm 12.8 5.2 9.1 78 1.9 SSW 39 59 21 32 1003.0 1002.9 6.4
24/11:30pm 12.8 5.6 9.1 78 1.9 SSW 37 56 20 30 1003.0 1002.9 6.4
24/11:07pm 12.9 5.3 9.0 77 2.0 SSW 39 57 21 31 1002.6 1002.5 6.4
24/11:00pm 13.0 4.5 9.3 78 1.9 SSW 44 61 24 33 1002.5 1002.4 6.4
24/10:30pm 13.3 5.8 9.5 78 2.0 SW 39 61 21 33 1002.0 1001.9 6.4
24/10:00pm 13.6 4.9 9.8 78 2.0 SW 46 69 25 37 1001.4 1001.3 6.2
24/09:30pm 13.3 5.4 9.5 78 2.0 SW 41 61 22 33 1001.3 1001.2 6.2
24/09:02pm 13.4 5.3 10.0 80 1.8 WSW 43 63 23 34 1001.5 1001.4 6.2
24/09:00pm 13.3 4.7 8.8 74 2.3 WSW 44 63 24 34 1001.4 1001.3 6.2
24/08:30pm 12.1 4.0 8.6 79 1.8 WSW 41 63 22 34 1001.3 1001.2 6.2
24/08:00pm 12.0 4.3 8.7 80 1.6 WSW 39 63 21 34 1001.4 1001.3 6.0
24/07:57pm 11.9 4.7 9.1 83 1.4 WSW 37 63 20 34 1001.3 1001.2 6.0
24/07:30pm 11.3 5.6 8.5 83 1.4 W 28 43 15 23 1001.8 1001.7 3.4
24/07:00pm 10.6 6.1 8.5 87 1.0 WNW 22 37 12 20 1002.0 1001.9 3.4
24/06:30pm 10.2 4.7 9.0 92 0.6 NW 28 39 15 21 1002.7 1002.6 3.2
24/06:00pm 10.4 3.2 9.0 91 0.7 NW 37 54 20 29 1003.2 1003.1 2.0
24/05:39pm 11.6 2.9 7.5 76 2.0 WNW 43 76 23 41 1003.5 1003.4 0.8
24/05:30pm 12.3 5.0 7.2 71 2.5 WNW 35 56 19 30 1003.5 1003.4 0.6
24/05:00pm 12.8 5.6 5.9 63 3.3 WNW 33 56 18 30 1004.0 1003.9 0.6
24/04:33pm 12.4 6.1 9.1 80 1.7 WNW 32 52 17 28 1004.5 1004.4 0.6
24/04:30pm 12.3 6.1 9.3 82 1.5 WNW 32 43 17 23 1004.6 1004.5 0.6
24/04:00pm 13.3 7.4 7.5 68 2.8 WNW 28 46 15 25 1005.3 1005.3 0.2
24/03:37pm 13.3 5.7 5.9 61 3.5 WNW 35 61 19 33 1005.8 1005.8 0.2
24/03:30pm 13.6 6.5 5.5 58 3.8 WNW 32 46 17 25 1005.8 1005.8 0.2
24/03:16pm 14.7 6.7 5.5 54 4.4 WNW 37 56 20 30 1005.7 1005.7 0.2
24/03:00pm 14.9 6.6 6.0 55 4.3 WNW 39 54 21 29 1005.8 1005.8 0.2
24/02:30pm 12.8 5.5 7.0 68 2.8 W 35 56 19 30 1006.5 1006.4 0.0
24/02:19pm 15.0 8.4 6.0 55 4.3 W 30 59 16 32 1006.5 1006.4 0.0
24/02:00pm 15.9 8.9 6.1 52 4.8 W 32 44 17 24 1006.6 1006.5 0.0
24/01:30pm 15.4 9.2 7.7 60 3.9 W 30 41 16 22 1007.0 1006.9 0.0
24/01:08pm 14.8 7.9 7.1 60 3.8 W 33 52 18 28 1007.2 1007.1 0.0
24/01:00pm 16.2 9.1 6.6 53 4.7 W 33 48 18 26 1007.3 1007.2 0.0
24/12:30pm 16.6 10.0 7.8 56 4.5 W 32 48 17 26 1007.5 1007.4 0.0
24/12:00pm 15.4 9.1 7.4 59 4.0 WSW 30 52 16 28 1007.7 1007.6 0.0
24/11:30am 12.7 5.6 8.2 74 2.2 WSW 35 69 19 37 1008.1 1008.0 0.0
24/11:25am 14.4 7.6 7.9 65 3.2 WSW 33 69 18 37 1008.0 1007.9 0.0
24/11:00am 15.0 8.1 8.7 66 3.2 WSW 35 50 19 27 1008.0 1007.9 0.0
24/10:30am 14.0 6.4 9.2 73 2.5 WSW 39 56 21 30 1007.9 1007.8 0.0
24/10:08am 13.8 7.0 7.8 67 3.0 WSW 33 52 18 28 1007.6 1007.5 0.0
24/10:00am 14.4 7.2 7.5 63 3.4 WSW 35 50 19 27 1007.6 1007.5 0.0
24/09:30am 13.5 6.9 7.7 68 2.9 WSW 32 48 17 26 1007.7 1007.6 0.0
24/09:00am 12.2 5.6 8.7 79 1.7 WSW 33 54 18 29 1007.9 1007.8 5.2
24/08:30am 12.1 5.2 10.2 88 1.0 WSW 37 57 20 31 1007.7 1007.6 5.2
24/08:00am 12.3 4.8 11.0 92 0.7 WSW 41 59 22 32 1007.7 1007.6 5.2
24/07:58am 12.2 4.7 10.9 92 0.7 WSW 41 59 22 32 1007.7 1007.6 5.2
24/07:30am 12.3 3.8 10.7 90 0.8 WSW 46 65 25 35 1007.2 1007.1 4.8
24/07:00am 13.1 5.6 12.2 94 0.5 WSW 43 63 23 34 1006.5 1006.4 4.2
24/06:54am 13.6 8.6 12.3 92 0.7 W 30 54 16 29 1006.6 1006.5 3.6
24/06:30am 14.6 11.2 12.6 88 1.1 NW 22 35 12 19 1006.1 1006.1 0.0
24/06:00am 14.3 10.6 12.7 90 0.9 NW 24 39 13 21 1006.4 1006.3 0.0
24/05:30am 14.5 11.7 13.2 92 0.7 NNW 20 32 11 17 1006.6 1006.5 0.0
24/05:00am 15.4 11.5 13.4 88 1.1 NNW 26 41 14 22 1007.3 1007.2 0.0
24/04:30am 14.8 12.1 12.8 88 1.1 NW 19 26 10 14 1007.6 1007.5 0.0
24/04:00am 14.7 11.8 12.4 86 1.3 NW 19 24 10 13 1007.7 1007.6 0.0
24/03:30am 15.4 12.9 12.3 82 1.7 NW 17 26 9 14 1008.1 1008.0 0.0
24/03:00am 14.7 13.4 12.6 87 1.2 NW 11 15 6 8 1008.7 1008.6 0.0
24/02:30am 14.6 13.2 12.3 86 1.3 NNW 11 15 6 8 1009.4 1009.3 0.0
24/02:00am 14.5 13.1 12.2 86 1.2 NW 11 15 6 8 1010.0 1009.9 0.0
24/01:30am 14.5 12.6 11.7 83 1.5 NW 13 17 7 9 1010.6 1010.5 0.0
24/01:00am 14.5 12.9 11.7 83 1.5 NW 11 15 6 8 1011.0 1010.9 0.0
24/12:30am 14.1 12.8 11.3 83 1.5 WNW 9 13 5 7 1011.3 1011.2 0.0
24/12:00am 13.9 12.6 11.2 84 1.4 NW 9 11 5 6 1011.6 1011.5 0.0
 
Date/Time
CST
Temp
°C
App
Temp
°C
Dew
Point
Rel
Hum
%
Delta-T
°C
Wind Press
QNH
hPa
Press
MSL
hPa
Rain
since 9 am
mm
Dir
 
Spd
km/h
Gust
km/h
Spd
kts
Gust
kts
23/11:30pm 13.9 12.9 11.1 83 1.5 WNW 7 9 4 5 1012.0 1011.9 0.0
23/11:00pm 14.2 12.8 10.8 80 1.8 W 9 13 5 7 1012.5 1012.4 0.0
23/10:30pm 14.6 13.2 10.8 78 2.0 W 9 11 5 6 1012.8 1012.7 0.0
23/10:00pm 14.7 13.0 11.1 79 1.9 WSW 11 15 6 8 1013.2 1013.1 0.0
23/09:30pm 14.8 13.1 11.2 79 1.9 WSW 11 15 6 8 1013.5 1013.4 0.0
23/09:00pm 15.3 12.6 11.7 79 1.9 SW 17 22 9 12 1013.8 1013.7 0.0
23/08:30pm 15.2 13.2 11.4 78 2.0 WSW 13 17 7 9 1013.8 1013.7 0.0
23/08:00pm 15.3 13.4 11.9 80 1.8 SW 13 20 7 11 1014.0 1013.9 0.0
23/07:30pm 15.4 12.2 11.8 79 2.0 SW 20 28 11 15 1014.0 1013.9 0.0
23/07:00pm 15.3 12.7 11.9 80 1.8 SW 17 24 9 13 1014.3 1014.2 0.0
23/06:30pm 15.2 11.7 12.3 83 1.6 SW 22 30 12 16 1014.6 1014.5 0.0
23/06:00pm 15.3 12.4 13.0 86 1.3 SW 20 28 11 15 1014.6 1014.5 0.0
23/05:30pm 15.5 13.1 12.8 84 1.5 WSW 17 24 9 13 1014.8 1014.7 0.0
23/05:00pm 15.6 13.7 11.8 78 2.1 WSW 13 20 7 11 1014.7 1014.6 0.0
23/04:30pm 15.8 13.9 11.8 77 2.2 WSW 13 19 7 10 1014.8 1014.7 0.0
23/04:00pm 16.1 14.6 11.9 76 2.3 WSW 11 15 6 8 1014.9 1014.8 0.0
23/03:30pm 16.4 14.6 12.2 76 2.3 SW 13 17 7 9 1015.2 1015.1 0.0
23/03:00pm 16.5 15.4 12.1 75 2.4 SW 9 13 5 7 1015.4 1015.3 0.0
23/02:30pm 16.3 15.8 12.1 76 2.3 SW 6 7 3 4 1015.6 1015.5 0.0
23/02:00pm 16.3 15.7 11.7 74 2.5 SSW 6 7 3 4 1015.8 1015.7 0.0
23/01:30pm 16.9 16.7 11.8 72 2.8 S 4 6 2 3 1015.9 1015.8 0.0
23/01:00pm 16.6 16.1 12.0 74 2.5 SSE 6 9 3 5 1016.2 1016.1 0.0
23/12:30pm 16.3 15.6 12.1 76 2.3 SSE 7 9 4 5 1016.8 1016.7 0.0
23/12:00pm 16.2 14.7 12.0 76 2.3 SSE 11 15 6 8 1017.2 1017.1 0.0
23/11:30am 16.4 15.5 12.6 78 2.1 SSE 9 13 5 7 1018.1 1018.0 0.0
23/11:00am 15.8 14.9 12.5 81 1.8 S 9 13 5 7 1018.8 1018.7 0.0
23/10:30am 15.6 15.0 12.4 81 1.8 SSE 7 11 4 6 1019.0 1018.9 0.0
23/10:00am 15.5 14.1 12.3 81 1.8 SSE 11 13 6 7 1019.1 1019.0 0.0
23/09:30am 15.4 14.0 12.3 82 1.7 SSE 11 13 6 7 1019.1 1019.0 0.0
23/09:00am 15.4 14.0 12.2 81 1.7 SSE 11 15 6 8 1019.6 1019.5 0.0
23/08:30am 15.6 14.2 12.2 80 1.9 S 11 15 6 8 1019.9 1019.8 0.0
23/08:00am 14.9 13.8 11.9 82 1.6 SSE 9 11 5 6 1019.8 1019.7 0.0
23/07:30am 14.6 13.1 11.9 84 1.5 SSE 11 15 6 8 1019.8 1019.7 0.0

Other Formats:

Comma delimited format used in spreadsheet applications
http://www.bom.gov.au/fwo/IDS60801/IDS60801.95806.axf

JavaScript Object Notation format (JSON) in row-major order
http://www.bom.gov.au/fwo/IDS60801/IDS60801.95806.json